Time;durP1;ratioP1;P1;durP2;ratioP2;P2;SDS_P1;SDS_P2;PMS_P1;PMS_P2;Temp;Humidity;BMP_temperature;BMP_pressure;BME280_temperature;BME280_humidity;BME280_pressure;Samples;Min_cycle;Max_cycle;Signal;HPM_P1;HPM_P2
2023/08/05 00:00:23;;;;;;;6.57;5.97;;;;;;;15.64;85.41;97870.78;5030377;28;20556;-72
2023/08/05 00:02:50;;;;;;;7.50;6.80;;;;;;;15.65;85.23;97875.16;5028353;28;20471;-72
2023/08/05 00:05:16;;;;;;;7.87;7.27;;;;;;;15.60;85.68;97875.88;5028111;28;20500;-72
2023/08/05 00:07:43;;;;;;;7.77;6.40;;;;;;;15.76;85.14;97874.34;5028282;28;20460;-72
2023/08/05 00:10:10;;;;;;;6.70;5.80;;;;;;;15.72;85.23;97873.16;5028449;28;20544;-72
2023/08/05 00:12:37;;;;;;;6.73;6.00;;;;;;;15.73;85.26;97866.63;5029113;28;20448;-72
2023/08/05 00:15:07;;;;;;;6.30;5.80;;;;;;;15.66;85.56;97869.47;5027165;28;21026;-72
2023/08/05 00:17:33;;;;;;;7.03;6.43;;;;;;;15.63;85.71;97885.50;5029164;28;20951;-73
2023/08/05 00:20:00;;;;;;;6.80;6.20;;;;;;;15.61;85.58;97876.72;5028700;28;20848;-72
2023/08/05 00:22:27;;;;;;;7.10;6.40;;;;;;;15.59;86.01;97874.25;5027040;28;20492;-72
2023/08/05 00:24:54;;;;;;;7.87;7.07;;;;;;;15.51;86.28;97876.47;5027333;28;20471;-72
2023/08/05 00:27:20;;;;;;;7.20;6.60;;;;;;;15.65;85.37;97875.16;5029910;28;20510;-72
2023/08/05 00:29:47;;;;;;;7.20;6.60;;;;;;;15.62;85.70;97870.19;5028778;28;20452;-73
2023/08/05 00:32:15;;;;;;;6.43;5.93;;;;;;;15.73;85.11;97872.09;5024759;28;20460;-72
2023/08/05 00:34:42;;;;;;;7.20;6.50;;;;;;;15.58;85.77;97888.97;5027794;28;20476;-72
2023/08/05 00:37:09;;;;;;;6.00;5.60;;;;;;;15.66;85.20;97885.84;5029073;28;21081;-72
2023/08/05 00:39:36;;;;;;;7.10;6.50;;;;;;;15.65;85.31;97888.81;5027305;28;20492;-72
2023/08/05 00:42:03;;;;;;;6.67;5.97;;;;;;;15.63;85.22;97874.56;5029336;28;20542;-72
2023/08/05 00:44:30;;;;;;;6.20;5.70;;;;;;;15.60;85.31;97872.31;5026047;28;20551;-72
2023/08/05 00:46:57;;;;;;;6.30;5.80;;;;;;;15.50;85.67;97859.28;5027611;28;20456;-72
2023/08/05 00:49:25;;;;;;;6.50;5.90;;;;;;;15.66;85.06;97865.91;5027748;28;20452;-72
2023/08/05 00:51:52;;;;;;;6.57;5.97;;;;;;;15.57;85.45;97853.72;5028143;28;20519;-72
2023/08/05 00:54:19;;;;;;;8.90;6.13;;;;;;;15.46;86.04;97855.34;5025690;28;20563;-72
2023/08/05 00:56:46;;;;;;;7.03;6.40;;;;;;;15.47;85.93;97848.84;5029184;28;20456;-72
2023/08/05 00:59:13;;;;;;;7.40;5.97;;;;;;;15.31;86.68;97844.91;5032584;28;20526;-72
2023/08/05 01:01:39;;;;;;;8.57;6.33;;;;;;;15.44;86.33;97847.41;5031871;28;20456;-72
2023/08/05 01:04:06;;;;;;;7.30;6.70;;;;;;;15.43;86.09;97834.84;5030831;28;20515;-72
2023/08/05 01:06:35;;;;;;;6.53;5.93;;;;;;;15.38;86.19;97837.44;5029126;28;20491;-72
2023/08/05 01:09:02;;;;;;;6.93;6.23;;;;;;;15.39;86.21;97825.47;5032704;28;20547;-73
2023/08/05 01:11:29;;;;;;;7.30;6.60;;;;;;;15.37;86.23;97837.69;5031167;28;20522;-72
2023/08/05 01:13:56;;;;;;;7.10;6.50;;;;;;;15.48;85.83;97841.47;5030154;28;20574;-73
2023/08/05 01:16:23;;;;;;;6.20;5.70;;;;;;;15.53;85.70;97842.44;5031254;28;20576;-73
2023/08/05 01:18:49;;;;;;;6.60;6.00;;;;;;;15.45;85.90;97850.97;5031616;28;20463;-72
2023/08/05 01:21:21;;;;;;;6.70;6.10;;;;;;;15.44;85.72;97850.13;5030824;28;21606;-72
2023/08/05 01:23:55;;;;;;;7.13;6.50;;;;;;;15.40;85.81;97848.94;5031620;28;20497;-72
2023/08/05 01:26:24;;;;;;;6.97;6.37;;;;;;;15.41;85.87;97852.50;5027403;28;20527;-73
2023/08/05 01:28:51;;;;;;;7.73;7.00;;;;;;;15.43;85.85;97858.56;5029743;28;20547;-73
2023/08/05 01:31:18;;;;;;;7.23;6.63;;;;;;;15.38;85.90;97859.25;5031676;28;20522;-73
2023/08/05 01:33:45;;;;;;;7.57;6.80;;;;;;;15.43;85.55;97856.66;5030286;28;21023;-73
2023/08/05 01:36:19;;;;;;;7.67;6.80;;;;;;;15.38;85.82;97856.53;5031090;28;20456;-73
2023/08/05 01:38:47;;;;;;;6.40;5.80;;;;;;;15.49;85.14;97857.59;5031127;28;20453;-73
2023/08/05 01:41:14;;;;;;;7.10;6.40;;;;;;;15.52;85.00;97846.22;5027866;28;20481;-72
2023/08/05 01:43:42;;;;;;;6.27;5.67;;;;;;;15.53;85.04;97847.88;5028263;28;20672;-73
2023/08/05 01:46:10;;;;;;;7.07;6.37;;;;;;;15.50;84.93;97858.44;5030634;28;20472;-73
2023/08/05 01:48:36;;;;;;;7.40;6.80;;;;;;;15.49;84.94;97863.06;5030931;28;20804;-73
2023/08/05 01:51:03;;;;;;;6.50;6.00;;;;;;;15.56;84.99;97879.31;5029260;28;20452;-72
2023/08/05 01:53:30;;;;;;;7.83;7.10;;;;;;;15.52;84.85;97872.66;5029193;28;20575;-73
2023/08/05 01:55:57;;;;;;;10.60;7.20;;;;;;;15.52;84.97;97872.66;5029696;28;20539;-73
2023/08/05 01:58:23;;;;;;;6.43;5.80;;;;;;;15.52;84.90;97856.31;5030947;28;20495;-73
2023/08/05 02:00:52;;;;;;;8.67;6.30;;;;;;;15.58;84.49;97849.94;5032719;28;20522;-73
2023/08/05 02:03:19;;;;;;;7.33;6.63;;;;;;;15.45;84.41;97846.34;5027714;28;20771;-74
2023/08/05 02:05:45;;;;;;;7.30;6.70;;;;;;;15.61;84.46;97850.25;5029608;28;20948;-73
2023/08/05 02:08:13;;;;;;;7.37;6.67;;;;;;;15.48;84.80;97850.50;5029740;28;20460;-73
2023/08/05 02:10:41;;;;;;;7.43;6.83;;;;;;;15.45;84.99;97851.78;5029191;28;21019;-72
2023/08/05 02:13:08;;;;;;;7.90;7.03;;;;;;;15.45;84.98;97851.78;5031438;28;20555;-73
2023/08/05 02:15:34;;;;;;;9.90;7.23;;;;;;;15.59;84.37;97837.94;5031041;28;20499;-72
2023/08/05 02:18:03;;;;;;;9.83;7.80;;;;;;;15.56;84.18;97835.66;5031646;28;20987;-73
2023/08/05 02:20:30;;;;;;;7.70;7.00;;;;;;;15.56;84.08;97846.56;5029296;28;20491;-73
2023/08/05 02:22:57;;;;;;;8.67;7.00;;;;;;;15.48;84.46;97836.03;5029881;28;20572;-72
2023/08/05 02:25:23;;;;;;;8.10;7.30;;;;;;;15.37;84.62;97834.94;5030345;28;20539;-72
2023/08/05 02:27:50;;;;;;;8.67;7.70;;;;;;;15.36;85.07;97820.50;5031952;28;20518;-73
2023/08/05 02:30:17;;;;;;;7.97;7.17;;;;;;;15.40;84.90;97829.84;5031048;28;20467;-72
2023/08/05 02:32:44;;;;;;;9.13;8.07;;;;;;;15.33;84.90;97814.69;5029843;28;20530;-73
2023/08/05 02:35:12;;;;;;;7.80;7.07;;;;;;;15.38;84.94;97814.78;5031228;28;21458;-73
2023/08/05 02:37:39;;;;;;;7.90;7.20;;;;;;;15.16;85.80;97809.13;5029530;28;20460;-73
2023/08/05 02:40:07;;;;;;;7.40;6.70;;;;;;;15.21;85.80;97801.06;5030912;28;20587;-72
2023/08/05 02:42:33;;;;;;;8.50;7.70;;;;;;;15.23;85.71;97793.47;5029347;28;20452;-72
2023/08/05 02:45:01;;;;;;;8.40;7.70;;;;;;;15.18;85.90;97787.91;5031154;28;20519;-73
2023/08/05 02:47:28;;;;;;;7.63;6.93;;;;;;;15.13;85.82;97782.34;5031487;28;20531;-73
2023/08/05 02:49:55;;;;;;;8.80;7.90;;;;;;;15.03;86.45;97787.53;5029382;28;20452;-73
2023/08/05 02:52:23;;;;;;;10.00;8.37;;;;;;;14.99;86.42;97780.91;5029986;28;20474;-72
2023/08/05 02:54:50;;;;;;;8.50;7.70;;;;;;;14.97;86.60;97802.09;5030655;28;20521;-73
2023/08/05 02:57:16;;;;;;;8.30;7.50;;;;;;;14.90;86.78;97793.25;5030657;28;21033;-73
2023/08/05 02:59:43;;;;;;;9.50;8.70;;;;;;;14.91;86.96;97800.34;5028574;28;20498;-73
2023/08/05 03:02:10;;;;;;;8.17;7.50;;;;;;;14.98;86.59;97815.50;5030611;28;20460;-72
2023/08/05 03:04:37;;;;;;;9.30;8.30;;;;;;;14.95;86.61;97817.88;5029968;28;20472;-72
2023/08/05 03:07:04;;;;;;;9.70;7.90;;;;;;;14.88;86.95;97817.16;5028511;28;20492;-72
2023/08/05 03:09:32;;;;;;;8.70;7.90;;;;;;;14.81;87.42;97811.00;5027461;28;20487;-72
2023/08/05 03:11:58;;;;;;;8.73;7.93;;;;;;;14.92;86.89;97815.63;5028118;28;20471;-72
2023/08/05 03:14:25;;;;;;;8.40;7.57;;;;;;;14.78;87.23;97820.47;5029107;28;20487;-72
2023/08/05 03:16:52;;;;;;;9.07;8.27;;;;;;;14.84;87.02;97827.69;5029693;28;21159;-71
2023/08/05 03:19:19;;;;;;;9.90;8.63;;;;;;;14.86;86.94;97835.66;5027824;28;20824;-72
2023/08/05 03:21:46;;;;;;;7.80;7.20;;;;;;;14.81;87.00;97843.69;5030424;28;20459;-72
2023/08/05 03:24:12;;;;;;;8.87;7.97;;;;;;;14.82;87.08;97859.81;5029139;28;20549;-72
2023/08/05 03:26:40;;;;;;;10.50;8.17;;;;;;;14.84;87.02;97856.84;5027114;28;20459;-72
2023/08/05 03:29:07;;;;;;;7.77;6.93;;;;;;;14.88;86.88;97858.03;5025929;28;20498;-72
2023/08/05 03:31:34;;;;;;;8.67;7.60;;;;;;;14.92;86.85;97856.50;5030412;28;20824;-72
2023/08/05 03:34:01;;;;;;;7.97;7.13;;;;;;;14.90;86.70;97854.03;5026059;28;21074;-72
2023/08/05 03:36:28;;;;;;;11.37;6.90;;;;;;;14.93;86.44;97855.44;5024778;28;20564;-71
2023/08/05 03:38:55;;;;;;;7.83;7.13;;;;;;;14.99;86.23;97855.31;5025667;28;20452;-72
2023/08/05 03:41:22;;;;;;;10.07;7.50;;;;;;;14.94;86.48;97855.22;5030375;28;20522;-72
2023/08/05 03:43:50;;;;;;;8.30;7.60;;;;;;;14.95;86.34;97853.28;5030125;28;20463;-72
2023/08/05 03:46:17;;;;;;;9.00;8.10;;;;;;;14.99;86.28;97859.94;5029480;28;20459;-72
2023/08/05 03:48:43;;;;;;;8.60;7.70;;;;;;;15.03;85.96;97869.31;5029247;28;20456;-74
2023/08/05 03:51:10;;;;;;;7.67;7.07;;;;;;;15.00;85.86;97872.50;5030330;28;20491;-73
2023/08/05 03:53:37;;;;;;;7.90;7.10;;;;;;;15.12;85.46;97876.09;5029982;28;20512;-74
2023/08/05 03:56:04;;;;;;;7.70;7.00;;;;;;;15.07;85.64;97881.41;5028389;28;20445;-73
2023/08/05 03:58:31;;;;;;;7.90;7.10;;;;;;;14.98;85.87;97882.81;5028929;28;20952;-73
2023/08/05 04:01:00;;;;;;;8.03;7.30;;;;;;;14.98;86.17;97885.53;5030932;28;21031;-73
2023/08/05 04:03:28;;;;;;;9.10;8.10;;;;;;;15.04;85.67;97879.16;5028791;28;20490;-73
2023/08/05 04:05:55;;;;;;;9.73;8.07;;;;;;;14.98;85.87;97882.81;5028271;28;20627;-73
2023/08/05 04:08:22;;;;;;;8.17;7.47;;;;;;;14.83;85.98;97879.72;5027114;28;20460;-73
2023/08/05 04:10:49;;;;;;;7.97;7.27;;;;;;;14.76;86.10;97874.34;5030067;28;20801;-73
2023/08/05 04:13:17;;;;;;;8.50;7.70;;;;;;;14.93;86.00;97893.59;5029971;28;20547;-73
2023/08/05 04:15:45;;;;;;;8.60;7.63;;;;;;;15.03;85.65;97894.66;5026929;28;20887;-73
2023/08/05 04:18:13;;;;;;;8.70;8.00;;;;;;;15.12;84.86;97889.72;5026896;28;20472;-73
2023/08/05 04:20:40;;;;;;;8.50;7.73;;;;;;;15.05;85.25;97884.38;5025843;28;20491;-73
2023/08/05 04:23:08;;;;;;;7.87;7.17;;;;;;;14.70;85.21;97840.69;5029335;28;20471;-73
2023/08/05 04:25:35;;;;;;;7.70;7.10;;;;;;;15.01;85.37;97894.06;5028124;28;20514;-73
2023/08/05 04:28:02;;;;;;;7.13;6.20;;;;;;;14.74;85.02;97831.00;5026642;28;21010;-73
2023/08/05 04:30:29;;;;;;;8.03;7.00;;;;;;;15.09;84.63;97873.81;5023849;28;20450;-73
2023/08/05 04:32:56;;;;;;;7.33;6.63;;;;;;;15.06;84.85;97875.13;5030297;28;20479;-73
2023/08/05 04:35:24;;;;;;;8.00;7.40;;;;;;;14.87;85.50;97875.44;5031590;28;20471;-73
2023/08/05 04:37:51;;;;;;;8.23;7.57;;;;;;;14.92;85.48;97890.03;5029394;28;20451;-73
2023/08/05 04:40:18;;;;;;;7.43;6.73;;;;;;;14.95;85.44;97889.56;5031646;28;20990;-74
2023/08/05 04:42:45;;;;;;;8.20;7.50;;;;;;;14.97;85.05;97881.97;5031613;28;21068;-73
2023/08/05 04:45:12;;;;;;;8.77;7.97;;;;;;;15.01;84.95;97887.78;5031184;28;20524;-73
2023/08/05 04:47:39;;;;;;;7.07;6.37;;;;;;;14.99;85.10;97892.63;5030807;28;21028;-73
2023/08/05 04:50:07;;;;;;;7.37;6.67;;;;;;;15.12;84.38;97892.44;5029953;28;20466;-73
2023/08/05 04:52:35;;;;;;;7.67;6.97;;;;;;;15.08;84.77;97899.41;5030894;28;21013;-73
2023/08/05 04:55:08;;;;;;;7.90;7.20;;;;;;;15.01;84.72;97898.69;5032634;28;20436;-73
2023/08/05 04:57:35;;;;;;;7.87;7.17;;;;;;;15.09;84.29;97891.00;5032406;28;20547;-73
2023/08/05 05:00:02;;;;;;;7.57;6.90;;;;;;;15.16;84.01;97899.09;5031137;28;21066;-73
2023/08/05 05:02:29;;;;;;;7.40;6.80;;;;;;;15.07;84.62;97903.22;5032596;28;20972;-73
2023/08/05 05:04:56;;;;;;;7.20;6.57;;;;;;;15.07;84.79;97905.94;5032217;28;20489;-73
2023/08/05 05:07:22;;;;;;;7.03;6.30;;;;;;;15.26;84.00;97901.25;5031114;28;20456;-73
2023/08/05 05:09:51;;;;;;;7.77;7.00;;;;;;;15.26;83.81;97896.63;5029335;28;20995;-73
2023/08/05 05:12:18;;;;;;;8.83;6.60;;;;;;;15.32;83.75;97905.72;5031915;28;20468;-73
2023/08/05 05:14:45;;;;;;;6.90;6.37;;;;;;;15.24;83.66;97898.75;5029070;28;20478;-73
2023/08/05 05:17:14;;;;;;;7.70;7.00;;;;;;;15.27;83.66;97898.25;5030934;28;21022;-73
2023/08/05 05:19:41;;;;;;;6.90;6.30;;;;;;;15.32;83.60;97901.09;5028456;28;20470;-74
2023/08/05 05:22:08;;;;;;;7.63;6.87;;;;;;;15.29;83.75;97907.03;5029360;28;20487;-74
2023/08/05 05:24:35;;;;;;;7.50;6.90;;;;;;;15.26;83.58;97906.69;5025725;28;20455;-77
2023/08/05 05:27:04;;;;;;;7.17;6.47;;;;;;;15.26;83.81;97907.53;5025254;28;20468;-72
2023/08/05 05:29:30;;;;;;;6.53;5.93;;;;;;;15.40;83.22;97914.41;5025449;28;20494;-71
2023/08/05 05:31:57;;;;;;;6.77;6.13;;;;;;;15.39;82.99;97906.44;5031628;28;21033;-71
2023/08/05 05:34:24;;;;;;;6.80;6.20;;;;;;;15.43;83.00;97907.66;5031096;28;20471;-71
2023/08/05 05:36:51;;;;;;;6.33;5.73;;;;;;;15.40;82.78;97908.13;5030765;28;20444;-71
2023/08/05 05:39:17;;;;;;;7.67;6.90;;;;;;;15.37;82.74;97909.41;5031565;28;20448;-71
2023/08/05 05:41:44;;;;;;;7.40;6.70;;;;;;;15.30;83.23;97907.84;5028802;28;20662;-71
2023/08/05 05:44:13;;;;;;;7.23;6.63;;;;;;;15.32;82.67;97901.09;5029861;28;20574;-72
2023/08/05 05:46:39;;;;;;;6.53;6.03;;;;;;;15.38;82.64;97911.06;5029762;28;20456;-72
2023/08/05 05:49:06;;;;;;;7.63;6.80;;;;;;;15.37;82.94;97909.41;5031243;28;20555;-73
2023/08/05 05:51:34;;;;;;;7.57;6.87;;;;;;;15.31;82.91;97899.44;5027596;28;20541;-72
2023/08/05 05:54:01;;;;;;;7.20;6.60;;;;;;;15.30;82.96;97897.78;5030449;28;20478;-72
2023/08/05 05:56:28;;;;;;;8.23;7.43;;;;;;;15.40;82.76;97892.59;5022674;28;20967;-72
2023/08/05 05:58:55;;;;;;;7.57;6.83;;;;;;;15.44;82.56;97884.75;5027720;28;20449;-74
2023/08/05 06:01:23;;;;;;;7.07;6.40;;;;;;;15.45;82.57;97889.16;5024236;28;20900;-73
2023/08/05 06:03:51;;;;;;;6.67;6.07;;;;;;;15.55;82.06;97883.94;5026298;28;20574;-72
2023/08/05 06:06:18;;;;;;;6.77;6.17;;;;;;;15.68;81.69;97875.53;5025572;28;20986;-73
2023/08/05 06:08:44;;;;;;;6.23;5.67;;;;;;;15.78;80.82;97886.69;5027480;28;20537;-72
2023/08/05 06:11:11;;;;;;;7.23;6.50;;;;;;;15.80;81.03;97883.72;5031343;28;20456;-72
2023/08/05 06:13:38;;;;;;;7.00;5.60;;;;;;;15.91;80.69;97882.03;5029071;28;20494;-72
2023/08/05 06:16:05;;;;;;;6.53;6.00;;;;;;;15.95;80.51;97878.56;5028194;28;20517;-71
2023/08/05 06:18:33;;;;;;;6.30;5.40;;;;;;;16.15;79.59;97886.38;5030661;28;20484;-72
2023/08/05 06:21:00;;;;;;;6.10;5.60;;;;;;;16.27;78.72;97869.94;5030469;28;20493;-72
2023/08/05 06:23:26;;;;;;;5.90;5.30;;;;;;;16.42;77.88;97867.50;5029297;28;20487;-72
2023/08/05 06:25:53;;;;;;;8.03;5.73;;;;;;;16.48;77.40;97871.19;5028717;28;20543;-71
2023/08/05 06:28:20;;;;;;;6.60;6.00;;;;;;;16.52;77.36;97867.72;5027269;28;20583;-73
2023/08/05 06:30:47;;;;;;;6.93;6.13;;;;;;;16.57;77.38;97875.97;5028176;28;20508;-74
2023/08/05 06:33:14;;;;;;;5.97;5.43;;;;;;;16.56;77.12;97882.56;5025396;28;20980;-72
2023/08/05 06:35:42;;;;;;;6.00;5.20;;;;;;;16.58;77.01;97880.38;5023474;28;20477;-72
2023/08/05 06:38:09;;;;;;;6.53;5.50;;;;;;;16.55;77.33;97880.06;5025237;28;20449;-72
2023/08/05 06:40:36;;;;;;;5.03;4.63;;;;;;;16.89;76.13;97886.47;5025772;28;20479;-73
2023/08/05 06:43:02;;;;;;;5.90;5.40;;;;;;;16.97;75.35;97881.41;5027033;28;20476;-72
2023/08/05 06:45:31;;;;;;;6.00;5.33;;;;;;;17.09;75.05;97879.44;5028291;28;20466;-72
2023/08/05 06:47:58;;;;;;;5.53;4.97;;;;;;;17.22;74.40;97872.78;5024614;28;20489;-72
2023/08/05 06:50:24;;;;;;;5.13;4.73;;;;;;;17.23;74.36;97868.13;5029181;28;20460;-72
2023/08/05 06:52:52;;;;;;;5.80;5.17;;;;;;;17.22;74.07;97867.31;5027846;28;20534;-71
2023/08/05 06:55:19;;;;;;;6.37;5.47;;;;;;;17.30;73.52;97866.91;5027647;28;20456;-72
2023/08/05 06:57:48;;;;;;;5.67;5.13;;;;;;;17.54;72.95;97872.22;5029174;28;20464;-74
2023/08/05 07:00:15;;;;;;;5.90;5.30;;;;;;;17.54;72.91;97869.47;5026495;28;20452;-74
2023/08/05 07:02:42;;;;;;;5.70;5.20;;;;;;;17.79;71.84;97867.13;5028109;28;20490;-73
2023/08/05 07:05:09;;;;;;;6.10;5.50;;;;;;;17.91;71.49;97875.22;5028896;28;20452;-74
2023/08/05 07:07:36;;;;;;;5.20;4.80;;;;;;;18.05;70.61;97865.53;5027854;28;20456;-78
2023/08/05 07:10:07;;;;;;;5.33;4.93;;;;;;;17.99;70.68;97859.16;5026859;28;20951;-73
2023/08/05 07:12:34;;;;;;;6.13;5.63;;;;;;;17.84;71.02;97861.72;5029524;28;20472;-74
2023/08/05 07:15:01;;;;;;;5.07;4.67;;;;;;;18.09;70.62;97853.84;5026321;28;20857;-78
2023/08/05 07:17:28;;;;;;;6.60;4.87;;;;;;;18.49;68.92;97860.88;5026243;28;20452;-72
2023/08/05 07:19:55;;;;;;;6.00;5.50;;;;;;;18.43;68.52;97856.44;5026399;28;20471;-72
2023/08/05 07:22:21;;;;;;;5.40;4.90;;;;;;;18.85;67.59;97850.28;5027698;28;20574;-72
2023/08/05 07:24:48;;;;;;;5.20;4.70;;;;;;;18.87;67.28;97845.38;5027731;28;20460;-70
2023/08/05 07:27:16;;;;;;;5.60;5.03;;;;;;;19.12;66.43;97851.94;5028347;28;20476;-73
2023/08/05 07:29:43;;;;;;;5.37;3.90;;;;;;;19.46;65.13;97868.13;5029629;28;20518;-76
2023/08/05 07:32:10;;;;;;;5.87;5.37;;;;;;;19.22;64.89;97875.84;5028049;28;20533;-76
2023/08/05 07:34:37;;;;;;;5.00;4.50;;;;;;;19.20;65.62;97872.53;5023829;28;20460;-76
2023/08/05 07:37:05;;;;;;;4.57;4.17;;;;;;;19.04;65.90;97870.78;5032123;28;20857;-78
2023/08/05 07:39:34;;;;;;;5.23;4.77;;;;;;;19.05;65.94;97869.69;5027617;28;20463;-77
2023/08/05 07:42:02;;;;;;;4.77;4.37;;;;;;;18.85;65.94;97875.78;5028089;28;20553;-77
2023/08/05 07:44:31;;;;;;;4.70;4.40;;;;;;;18.49;67.33;97869.09;5029605;28;20487;-77
2023/08/05 07:46:58;;;;;;;4.50;4.17;;;;;;;18.85;66.94;97864.00;5028806;28;20544;-79
2023/08/05 07:49:25;;;;;;;5.63;5.10;;;;;;;19.00;66.18;97861.41;5029728;28;20471;-77
2023/08/05 07:51:53;;;;;;;4.90;4.50;;;;;;;19.05;65.96;97858.72;5026657;28;20540;-77
2023/08/05 07:54:20;;;;;;;4.40;4.00;;;;;;;19.47;64.80;97856.03;5029847;28;20452;-76
2023/08/05 07:56:48;;;;;;;4.80;3.90;;;;;;;20.52;61.60;97858.81;5028417;28;20516;-78
2023/08/05 07:59:17;;;;;;;4.20;3.90;;;;;;;21.41;58.51;97850.16;5029476;28;20463;-78
2023/08/05 08:01:45;;;;;;;4.00;3.60;;;;;;;22.53;54.63;97849.81;5027087;28;20488;-78
2023/08/05 08:04:14;;;;;;;4.47;3.80;;;;;;;23.15;52.38;97843.63;5023622;28;20543;-78
2023/08/05 08:06:42;;;;;;;5.10;3.57;;;;;;;22.86;52.96;97851.03;5026522;28;20464;-78
2023/08/05 08:09:09;;;;;;;5.23;3.90;;;;;;;21.84;55.25;97856.94;5029291;28;20804;-76
2023/08/05 08:11:36;;;;;;;4.43;3.20;;;;;;;21.95;55.50;97842.03;5028147;28;20452;-76
2023/08/05 08:14:04;;;;;;;3.37;3.17;;;;;;;22.75;53.80;97836.44;5022386;28;20463;-76
2023/08/05 08:16:32;;;;;;;5.17;3.80;;;;;;;22.60;53.71;97837.38;5027984;28;20462;-76
2023/08/05 08:19:02;;;;;;;6.60;3.50;;;;;;;22.86;52.98;97845.50;5027807;28;20467;-76
2023/08/05 08:21:29;;;;;;;3.77;3.47;;;;;;;23.28;52.12;97837.47;5028902;28;20498;-78
2023/08/05 08:23:56;;;;;;;3.47;3.17;;;;;;;23.45;51.19;97826.81;5027367;28;20490;-77
2023/08/05 08:26:23;;;;;;;5.00;3.27;;;;;;;24.27;49.23;97828.75;5027757;28;21001;-76
2023/08/05 08:28:49;;;;;;;2.60;2.40;;;;;;;24.37;48.10;97836.91;5027532;28;20466;-76
2023/08/05 08:31:16;;;;;;;6.97;3.10;;;;;;;24.81;47.32;97825.50;5029024;28;20494;-75
2023/08/05 08:33:43;;;;;;;4.00;3.70;;;;;;;24.54;47.85;97814.28;5023342;28;20480;-77
2023/08/05 08:36:11;;;;;;;3.60;2.77;;;;;;;25.29;46.29;97801.22;5027031;28;20503;-76
2023/08/05 08:38:38;;;;;;;3.47;3.17;;;;;;;25.50;45.42;97810.00;5027686;28;20468;-76
2023/08/05 08:41:05;;;;;;;2.67;2.47;;;;;;;25.65;45.13;97812.53;5027867;28;20487;-77
2023/08/05 08:43:32;;;;;;;3.13;2.83;;;;;;;26.04;44.48;97812.03;5026860;28;20464;-77
2023/08/05 08:45:59;;;;;;;2.93;2.60;;;;;;;26.37;43.32;97817.50;5027117;28;20467;-76
2023/08/05 08:48:27;;;;;;;3.30;2.87;;;;;;;26.60;42.52;97808.13;5028811;28;20543;-77
2023/08/05 08:50:55;;;;;;;2.97;2.77;;;;;;;26.42;43.03;97797.94;5023814;28;20460;-75
2023/08/05 08:53:23;;;;;;;2.93;2.63;;;;;;;26.05;43.27;97794.25;5025560;28;20590;-76
2023/08/05 08:55:50;;;;;;;3.13;2.90;;;;;;;25.87;43.62;97797.97;5027378;28;20500;-74
2023/08/05 08:58:17;;;;;;;2.90;2.70;;;;;;;26.12;42.28;97799.41;5026536;28;20574;-76
2023/08/05 09:00:44;;;;;;;4.53;2.23;;;;;;;26.42;42.11;97803.50;5026072;28;20460;-74
2023/08/05 09:03:11;;;;;;;3.40;2.23;;;;;;;25.58;43.27;97808.47;5028397;28;20488;-73
2023/08/05 09:05:42;;;;;;;2.57;2.20;;;;;;;26.41;42.17;97802.69;5028538;28;20955;-73
2023/08/05 09:08:09;;;;;;;3.60;2.20;;;;;;;27.03;40.33;97796.56;5028815;28;20463;-74
2023/08/05 09:10:38;;;;;;;1.90;1.80;;;;;;;27.15;39.48;97796.84;5025725;28;21011;-73
2023/08/05 09:13:05;;;;;;;2.50;1.67;;;;;;;27.24;39.18;97803.28;5028169;28;20873;-74
2023/08/05 09:15:33;;;;;;;2.03;1.90;;;;;;;26.88;40.39;97799.69;5028356;28;20531;-74
2023/08/05 09:18:00;;;;;;;2.17;1.93;;;;;;;27.48;38.73;97793.78;5025504;28;20517;-77
2023/08/05 09:20:27;;;;;;;2.00;1.80;;;;;;;28.03;39.04;97795.06;5030596;28;20955;-76
2023/08/05 09:22:55;;;;;;;2.10;1.90;;;;;;;28.24;38.03;97791.75;5022505;28;20542;-76
2023/08/05 09:25:23;;;;;;;2.70;2.50;;;;;;;27.91;37.51;97806.00;5020742;28;20502;-77
2023/08/05 09:27:52;;;;;;;1.97;1.87;;;;;;;27.46;38.31;97804.41;5028180;28;20459;-76
2023/08/05 09:30:21;;;;;;;2.10;1.60;;;;;;;26.23;40.09;97800.00;5025845;28;20546;-77
2023/08/05 09:32:47;;;;;;;2.80;2.07;;;;;;;25.89;41.68;97801.25;5026327;28;20479;-77
2023/08/05 09:35:14;;;;;;;2.23;2.07;;;;;;;26.46;40.72;97779.53;5028094;28;20546;-77
2023/08/05 09:37:41;;;;;;;2.13;2.03;;;;;;;27.36;39.57;97791.56;5030669;28;20535;-78
2023/08/05 09:40:16;;;;;;;2.30;2.10;;;;;;;26.72;40.92;97786.16;5029276;28;20463;-77
2023/08/05 09:42:47;;;;;;;3.07;2.30;;;;;;;24.51;45.31;97793.53;5028231;28;20529;-83
2023/08/05 09:45:16;;;;;;;2.40;2.20;;;;;;;24.40;46.02;97794.81;5024881;28;21228;-84
2023/08/05 09:47:46;;;;;;;2.17;2.00;;;;;;;23.98;45.81;97784.56;5023766;28;20495;-77
2023/08/05 09:50:15;;;;;;;2.67;2.47;;;;;;;23.33;47.47;97796.00;5026326;28;20464;-77
2023/08/05 09:52:43;;;;;;;2.83;2.63;;;;;;;22.88;48.72;97777.88;5027699;28;20890;-77
2023/08/05 09:55:14;;;;;;;3.17;2.60;;;;;;;22.41;50.19;97779.28;5027814;28;20459;-77
2023/08/05 09:57:41;;;;;;;2.57;2.37;;;;;;;21.82;50.90;97770.97;5024208;28;20563;-77
2023/08/05 10:00:11;;;;;;;2.50;2.40;;;;;;;23.07;48.11;97770.53;5025235;28;20456;-76
2023/08/05 10:02:41;;;;;;;2.57;2.37;;;;;;;24.09;45.69;97770.28;5025060;28;20526;-77
2023/08/05 10:05:09;;;;;;;2.20;2.00;;;;;;;24.34;44.71;97765.59;5020214;28;20829;-76
2023/08/05 10:07:36;;;;;;;2.00;1.80;;;;;;;23.60;44.43;97772.53;5026245;28;20460;-76
2023/08/05 10:10:06;;;;;;;2.70;2.10;;;;;;;23.04;47.68;97771.13;5021827;28;20498;-76
2023/08/05 10:12:38;;;;;;;2.63;2.43;;;;;;;22.81;48.20;97765.50;5022911;28;20475;-75
2023/08/05 10:15:07;;;;;;;2.57;2.17;;;;;;;23.07;48.06;97764.16;5025673;28;20550;-75
2023/08/05 10:17:33;;;;;;;2.00;1.80;;;;;;;22.79;46.96;97763.84;5028608;28;20474;-79
2023/08/05 10:20:02;;;;;;;3.30;2.10;;;;;;;23.12;43.97;97761.38;5025444;28;20992;-77
2023/08/05 10:22:30;;;;;;;1.93;1.70;;;;;;;24.03;43.69;97754.91;5027322;28;21267;-75
2023/08/05 10:24:56;;;;;;;2.40;2.20;;;;;;;24.87;42.35;97762.56;5027240;28;20452;-75
2023/08/05 10:27:39;;;;;;;5.53;2.33;;;;;;;25.99;40.37;97755.84;5027027;28;20523;-78
2023/08/05 10:30:08;;;;;;;3.40;2.37;;;;;;;26.45;39.02;97755.69;5026986;28;20514;-73
2023/08/05 10:32:35;;;;;;;2.60;2.20;;;;;;;25.92;39.41;97745.16;5028130;28;20484;-74
2023/08/05 10:35:32;;;;;;;2.10;2.00;;;;;;;24.65;42.15;97743.81;5026755;28;21006;-74
2023/08/05 10:38:09;;;;;;;2.53;2.20;;;;;;;24.18;44.06;97736.44;5030414;28;20464;-74
2023/08/05 10:40:40;;;;;;;2.53;2.30;;;;;;;23.35;46.79;97740.47;5030612;28;20451;-75
2023/08/05 10:43:08;;;;;;;2.43;2.23;;;;;;;23.29;47.11;97734.16;5026627;28;20495;-76
2023/08/05 10:45:35;;;;;;;2.40;2.20;;;;;;;24.57;42.69;97737.00;5029237;28;21015;-76
2023/08/05 10:48:07;;;;;;;2.20;2.07;;;;;;;25.14;40.98;97723.91;5024076;28;20543;-74
2023/08/05 10:50:39;;;;;;;3.03;2.17;;;;;;;25.97;39.84;97722.88;5022962;28;20466;-76
2023/08/05 10:53:08;;;;;;;3.40;2.50;;;;;;;27.06;38.46;97724.53;5027995;28;20466;-75
2023/08/05 10:55:46;;;;;;;1.80;1.70;;;;;;;27.20;37.52;97713.34;5041199;28;23195;-75
2023/08/05 10:58:14;;;;;;;2.50;2.30;;;;;;;27.20;36.66;97710.56;5036993;28;20990;-75
2023/08/05 11:00:42;;;;;;;2.70;2.07;;;;;;;27.46;36.05;97709.88;5037730;28;20525;-75
2023/08/05 11:03:31;;;;;;;5.43;3.23;;;;;;;28.00;36.34;97709.44;5039773;28;20483;-75
2023/08/05 11:06:04;;;;;;;2.73;2.10;;;;;;;28.65;34.72;97708.56;5034560;28;20456;-76
2023/08/05 11:08:32;;;;;;;4.37;2.30;;;;;;;29.14;34.07;97703.63;5039862;28;20475;-75
2023/08/05 11:11:03;;;;;;;2.17;2.07;;;;;;;29.26;33.87;97694.56;5042731;28;21100;-73
2023/08/05 11:13:34;;;;;;;22.30;5.27;;;;;;;30.21;32.64;97703.38;5042457;28;21139;-76
2023/08/05 11:16:02;;;;;;;2.33;2.10;;;;;;;30.22;31.28;97698.59;5044565;28;20986;-76
2023/08/05 11:18:30;;;;;;;2.20;2.00;;;;;;;29.94;31.29;97696.28;5044093;28;20448;-74
2023/08/05 11:20:57;;;;;;;1.90;1.80;;;;;;;28.51;32.42;97685.63;5038987;28;20883;-75
2023/08/05 11:23:25;;;;;;;2.00;1.90;;;;;;;27.04;35.55;97681.50;5043271;28;20998;-75
2023/08/05 11:25:53;;;;;;;2.47;2.27;;;;;;;26.67;36.63;97677.97;5041666;28;20455;-74
2023/08/05 11:28:20;;;;;;;3.40;1.90;;;;;;;26.11;37.33;97675.69;5034072;28;20530;-75
2023/08/05 11:30:47;;;;;;;2.23;2.00;;;;;;;25.95;38.87;97674.38;5042566;28;21180;-75
2023/08/05 11:33:14;;;;;;;4.67;2.37;;;;;;;26.54;37.91;97666.94;5043339;28;20458;-75
2023/08/05 11:35:44;;;;;;;4.40;2.57;;;;;;;27.33;34.62;97656.81;5045568;28;20471;-76